Time;durP1;ratioP1;P1;durP2;ratioP2;P2;SDS_P1;SDS_P2;PMS_P1;PMS_P2;Temp;Humidity;BMP_temperature;BMP_pressure;BME280_temperature;BME280_humidity;BME280_pressure;Samples;Min_cycle;Max_cycle;Signal;HPM_P1;HPM_P2
2021/07/24 00:02:24;;;;;;;15.73;8.93;;;24.20;99.90;;;;;;5037080;28;20481;-77
2021/07/24 00:04:50;;;;;;;12.05;8.43;;;24.20;99.90;;;;;;5054646;28;20059;-77
2021/07/24 00:07:15;;;;;;;11.77;8.32;;;24.20;99.90;;;;;;5054659;28;20512;-77
2021/07/24 00:09:41;;;;;;;10.90;9.23;;;24.10;99.90;;;;;;5054976;28;20032;-77
2021/07/24 00:12:07;;;;;;;12.95;8.05;;;24.10;99.90;;;;;;5054673;28;20021;-77
2021/07/24 00:14:33;;;;;;;10.63;8.38;;;24.00;99.90;;;;;;5054524;28;20025;-77
2021/07/24 00:16:59;;;;;;;10.98;8.68;;;24.10;99.90;;;;;;5033200;28;20038;-77
2021/07/24 00:19:24;;;;;;;12.20;8.63;;;24.10;99.90;;;;;;5034690;28;20037;-77
2021/07/24 00:21:50;;;;;;;13.60;8.45;;;24.10;99.90;;;;;;5034526;28;20028;-77
2021/07/24 00:24:16;;;;;;;12.57;8.88;;;24.10;99.90;;;;;;5034668;28;20035;-77
2021/07/24 00:26:42;;;;;;;12.63;8.38;;;24.10;99.90;;;;;;5034381;28;20029;-77
2021/07/24 00:29:08;;;;;;;10.52;7.97;;;24.10;99.90;;;;;;5032815;28;20034;-76
2021/07/24 00:31:35;;;;;;;12.82;8.50;;;24.10;99.90;;;;;;5034183;28;20492;-77
2021/07/24 00:34:01;;;;;;;16.40;8.52;;;24.00;99.90;;;;;;5034336;28;20020;-77
2021/07/24 00:36:27;;;;;;;12.00;8.57;;;24.00;99.90;;;;;;5033302;28;20075;-77
2021/07/24 00:38:53;;;;;;;10.15;8.43;;;24.00;99.90;;;;;;5034439;28;20025;-77
2021/07/24 00:41:39;;;;;;;12.23;8.70;;;24.00;99.90;;;;;;5034198;28;20033;-77
2021/07/24 00:44:07;;;;;;;11.73;8.45;;;24.00;99.90;;;;;;5033965;28;20041;-77
2021/07/24 00:46:36;;;;;;;14.57;9.95;;;24.00;99.90;;;;;;5034392;28;20726;-77
2021/07/24 00:49:03;;;;;;;13.98;8.23;;;24.00;99.90;;;;;;5034226;28;20547;-77
2021/07/24 00:51:33;;;;;;;12.00;8.90;;;24.00;99.90;;;;;;5032616;28;20032;-77
2021/07/24 00:54:01;;;;;;;12.65;8.88;;;24.00;99.90;;;;;;5033929;28;20104;-77
2021/07/24 00:56:28;;;;;;;13.40;8.35;;;24.00;99.90;;;;;;5035609;28;20022;-77
2021/07/24 00:58:55;;;;;;;12.60;9.77;;;23.90;99.90;;;;;;5072144;22;20042;-77
2021/07/24 01:01:21;;;;;;;10.07;8.23;;;23.90;99.90;;;;;;5073398;28;20040;-77
2021/07/24 01:03:47;;;;;;;9.38;8.15;;;23.90;99.90;;;;;;5074381;28;20385;-77
2021/07/24 01:06:16;;;;;;;11.30;8.77;;;24.00;99.90;;;;;;5074205;28;20033;-76
2021/07/24 01:08:43;;;;;;;13.27;8.73;;;24.00;99.90;;;;;;5055209;28;20033;-77
2021/07/24 01:11:10;;;;;;;10.90;8.75;;;23.90;99.90;;;;;;5073263;28;20017;-76
2021/07/24 01:13:37;;;;;;;14.23;9.85;;;24.00;99.90;;;;;;5073760;28;20475;-77
2021/07/24 01:16:03;;;;;;;10.93;8.32;;;24.00;99.90;;;;;;5073548;28;20025;-77
2021/07/24 01:18:29;;;;;;;13.20;9.40;;;24.00;99.90;;;;;;5073415;28;20103;-77
2021/07/24 01:21:02;;;;;;;11.18;8.55;;;24.00;99.90;;;;;;5073088;28;20095;-77
2021/07/24 01:23:29;;;;;;;14.68;9.45;;;24.00;99.90;;;;;;5055086;28;20021;-77
2021/07/24 01:25:55;;;;;;;11.10;8.25;;;24.00;99.90;;;;;;5073313;28;20040;-77
2021/07/24 01:28:25;;;;;;;8.52;7.47;;;24.10;99.90;;;;;;5056233;28;20075;-77
2021/07/24 01:30:52;;;;;;;10.45;8.60;;;24.10;99.90;;;;;;5053153;28;20033;-77
2021/07/24 01:33:18;;;;;;;10.73;8.45;;;24.10;99.90;;;;;;5044849;28;20024;-77
2021/07/24 01:35:45;;;;;;;10.52;8.88;;;24.00;99.90;;;;;;5073217;28;20464;-76
2021/07/24 01:38:11;;;;;;;12.23;9.50;;;24.00;99.90;;;;;;5073151;28;20489;-77
2021/07/24 01:40:38;;;;;;;10.70;9.05;;;23.90;99.90;;;;;;5072981;28;20459;-76
2021/07/24 01:43:05;;;;;;;12.65;9.77;;;23.90;99.90;;;;;;5055167;28;20036;-77
2021/07/24 01:45:33;;;;;;;12.27;9.43;;;23.90;99.90;;;;;;5073046;28;20028;-77
2021/07/24 01:47:59;;;;;;;10.07;8.45;;;23.80;99.90;;;;;;5073069;28;20020;-77
2021/07/24 01:53:33;;;;;;;16.35;9.23;;;23.70;99.90;;;;;;5030594;28;20029;-76
2021/07/24 01:56:09;;;;;;;11.98;8.90;;;23.70;99.90;;;;;;5030692;28;20072;-77
2021/07/24 01:58:36;;;;;;;13.40;9.68;;;23.70;99.90;;;;;;5053981;28;20116;-77
2021/07/24 02:01:04;;;;;;;15.80;9.50;;;23.70;99.90;;;;;;5072540;28;20040;-77
2021/07/24 02:03:41;;;;;;;10.95;8.48;;;23.70;99.90;;;;;;5054805;28;20059;-76
2021/07/24 02:06:11;;;;;;;13.10;9.35;;;23.70;99.90;;;;;;5072854;28;20063;-76
2021/07/24 02:08:37;;;;;;;12.43;9.13;;;23.70;99.90;;;;;;5072599;28;20024;-77
2021/07/24 02:11:04;;;;;;;13.60;9.25;;;23.80;99.90;;;;;;5072793;28;20021;-77
2021/07/24 02:13:30;;;;;;;13.13;9.20;;;23.80;99.90;;;;;;5054709;28;20021;-77
2021/07/24 02:15:57;;;;;;;13.50;9.45;;;23.90;99.90;;;;;;5072121;28;20212;-77
2021/07/24 02:18:24;;;;;;;12.80;9.77;;;23.90;99.90;;;;;;5072720;28;20379;-77
2021/07/24 02:20:51;;;;;;;16.15;9.50;;;23.90;99.90;;;;;;5071765;28;20060;-76
2021/07/24 02:23:17;;;;;;;14.52;9.30;;;23.90;99.90;;;;;;5072489;28;20070;-77
2021/07/24 02:25:44;;;;;;;15.30;9.52;;;23.80;99.90;;;;;;5054730;28;20028;-77
2021/07/24 02:28:10;;;;;;;13.02;10.02;;;23.70;99.90;;;;;;5072598;28;20025;-77
2021/07/24 02:30:36;;;;;;;14.38;9.70;;;23.70;99.90;;;;;;5072187;28;20025;-76
2021/07/24 02:33:02;;;;;;;13.20;9.20;;;23.70;99.90;;;;;;5054801;28;20108;-77
2021/07/24 02:35:27;;;;;;;13.75;9.93;;;23.70;99.90;;;;;;5054211;28;20364;-77
2021/07/24 02:37:53;;;;;;;15.57;9.85;;;23.70;99.90;;;;;;5072286;28;20027;-77
2021/07/24 02:40:21;;;;;;;12.32;10.02;;;23.70;99.90;;;;;;5072250;28;20367;-77
2021/07/24 02:42:47;;;;;;;13.95;10.07;;;23.70;99.90;;;;;;5072498;28;20032;-77
2021/07/24 02:45:13;;;;;;;13.45;9.80;;;23.60;99.90;;;;;;5072353;28;20051;-77
2021/07/24 02:47:39;;;;;;;14.02;9.95;;;23.60;99.90;;;;;;5072545;28;20056;-77
2021/07/24 02:50:05;;;;;;;15.48;10.48;;;23.60;99.90;;;;;;5071981;28;20025;-77
2021/07/24 02:52:31;;;;;;;13.93;8.93;;;23.60;99.90;;;;;;5072328;28;20028;-76
2021/07/24 02:54:57;;;;;;;14.70;9.90;;;23.60;99.90;;;;;;5054353;28;20020;-77
2021/07/24 02:57:22;;;;;;;16.27;9.52;;;23.60;99.90;;;;;;5054169;28;20027;-77
2021/07/24 02:59:48;;;;;;;12.40;9.73;;;23.60;99.90;;;;;;5072014;28;20083;-77
2021/07/24 03:02:17;;;;;;;16.25;9.88;;;23.60;99.90;;;;;;5071704;28;20537;-77
2021/07/24 03:04:44;;;;;;;15.75;9.98;;;23.50;99.90;;;;;;5072159;28;20025;-76
2021/07/24 03:07:10;;;;;;;17.90;10.05;;;23.60;99.90;;;;;;5054133;28;20040;-76
2021/07/24 03:09:36;;;;;;;14.05;9.48;;;23.60;99.90;;;;;;5053988;28;20112;-77
2021/07/24 03:12:03;;;;;;;11.93;9.30;;;23.60;99.90;;;;;;5071612;28;20044;-77
2021/07/24 03:14:29;;;;;;;12.20;9.65;;;23.60;99.90;;;;;;5053806;28;20473;-77
2021/07/24 03:16:54;;;;;;;14.95;9.85;;;23.60;99.90;;;;;;5072321;28;20105;-76
2021/07/24 03:19:20;;;;;;;13.57;10.00;;;23.60;99.90;;;;;;5058119;28;20392;-77
2021/07/24 03:21:46;;;;;;;15.15;10.50;;;23.60;99.90;;;;;;5051940;28;20380;-77
2021/07/24 03:24:12;;;;;;;13.48;9.80;;;23.50;99.90;;;;;;5051708;28;20021;-77
2021/07/24 03:26:40;;;;;;;19.75;9.98;;;23.50;99.90;;;;;;5034594;28;20065;-77
2021/07/24 03:29:07;;;;;;;15.07;10.23;;;23.50;99.90;;;;;;5055421;28;20581;-77
2021/07/24 03:31:32;;;;;;;21.80;11.32;;;23.50;99.90;;;;;;5051654;28;20107;-77
2021/07/24 03:33:58;;;;;;;13.52;9.95;;;23.60;99.90;;;;;;5075317;28;20143;-77
2021/07/24 03:36:24;;;;;;;13.73;10.05;;;23.60;99.90;;;;;;5057293;28;20053;-77
2021/07/24 03:38:50;;;;;;;12.75;9.48;;;23.60;99.90;;;;;;5075217;28;20029;-77
2021/07/24 03:41:15;;;;;;;15.95;10.52;;;23.60;99.90;;;;;;5075492;28;20016;-77
2021/07/24 03:43:42;;;;;;;17.10;10.30;;;23.60;99.90;;;;;;5075375;28;20044;-77
2021/07/24 03:46:21;;;;;;;17.33;9.77;;;23.50;99.90;;;;;;5057345;28;20491;-77
2021/07/24 03:48:48;;;;;;;12.38;10.23;;;23.60;99.90;;;;;;5075202;28;20020;-77
2021/07/24 03:51:14;;;;;;;11.15;9.27;;;23.70;99.90;;;;;;5056813;28;20035;-77
2021/07/24 03:53:41;;;;;;;11.43;9.40;;;23.70;99.90;;;;;;5075085;28;20012;-77
2021/07/24 03:56:18;;;;;;;13.77;10.18;;;23.60;99.90;;;;;;5074991;28;20025;-77
2021/07/24 03:58:45;;;;;;;12.75;9.23;;;23.70;99.90;;;;;;5075027;28;20048;-77
2021/07/24 04:01:11;;;;;;;11.63;9.52;;;23.70;99.90;;;;;;5074887;28;20021;-77
2021/07/24 04:03:37;;;;;;;17.90;10.13;;;23.80;99.90;;;;;;5074491;28;20074;-77
2021/07/24 04:06:04;;;;;;;12.60;10.05;;;23.80;99.90;;;;;;5074519;28;20027;-76
2021/07/24 04:08:31;;;;;;;13.82;9.70;;;23.80;99.90;;;;;;5074121;28;20040;-77
2021/07/24 04:10:58;;;;;;;12.88;10.00;;;23.90;99.90;;;;;;5074350;28;20033;-76
2021/07/24 04:13:24;;;;;;;13.63;9.68;;;23.90;99.90;;;;;;5074627;28;20013;-77
2021/07/24 04:15:49;;;;;;;15.63;8.93;;;23.80;99.90;;;;;;5074500;28;20510;-77
2021/07/24 04:18:15;;;;;;;13.15;10.05;;;23.90;99.90;;;;;;5074176;28;20025;-76
2021/07/24 04:20:42;;;;;;;18.38;9.55;;;23.90;99.90;;;;;;5073906;28;20043;-77
2021/07/24 04:23:08;;;;;;;14.80;10.23;;;24.00;99.90;;;;;;5074147;28;20033;-77
2021/07/24 04:25:34;;;;;;;14.65;10.23;;;24.00;99.90;;;;;;5074249;28;20483;-77
2021/07/24 04:28:00;;;;;;;13.52;9.93;;;24.10;99.90;;;;;;5074010;28;20025;-76
2021/07/24 04:30:25;;;;;;;9.77;8.77;;;24.10;99.90;;;;;;5055684;28;20502;-77
2021/07/24 04:32:52;;;;;;;16.75;10.43;;;24.00;99.90;;;;;;5074331;28;20020;-77
2021/07/24 04:37:51;;;;;;;13.93;10.13;;;24.00;99.90;;;;;;5043926;22;20057;-77
2021/07/24 04:40:16;;;;;;;14.55;9.38;;;24.10;99.90;;;;;;5054452;28;20032;-77
2021/07/24 04:42:42;;;;;;;15.52;10.65;;;24.10;99.90;;;;;;5054599;28;20499;-77
2021/07/24 04:45:08;;;;;;;13.00;9.75;;;24.20;99.90;;;;;;5054539;28;20029;-77
2021/07/24 04:47:34;;;;;;;12.60;9.50;;;24.20;99.90;;;;;;5036015;28;20091;-77
2021/07/24 04:50:00;;;;;;;17.13;9.45;;;24.20;99.90;;;;;;5045267;28;20032;-77
2021/07/24 04:52:28;;;;;;;11.90;9.38;;;24.20;99.90;;;;;;5054002;28;20025;-77
2021/07/24 04:54:54;;;;;;;14.15;9.30;;;24.20;99.90;;;;;;5053219;28;20079;-76
2021/07/24 04:57:20;;;;;;;13.73;10.65;;;24.20;99.90;;;;;;5049964;28;20365;-76
2021/07/24 04:59:49;;;;;;;15.60;10.68;;;24.20;99.90;;;;;;5053895;28;20025;-77
2021/07/24 05:02:15;;;;;;;19.48;9.38;;;24.20;99.90;;;;;;5053530;28;20025;-77
2021/07/24 05:04:45;;;;;;;12.70;9.10;;;24.30;99.90;;;;;;5053730;28;20529;-77
2021/07/24 05:07:17;;;;;;;17.75;11.00;;;24.30;99.90;;;;;;5053530;28;20032;-76
2021/07/24 05:09:43;;;;;;;15.55;10.73;;;24.40;99.90;;;;;;5053727;28;20482;-77
2021/07/24 05:12:09;;;;;;;15.70;9.13;;;24.40;99.90;;;;;;5048067;28;20013;-77
2021/07/24 05:14:35;;;;;;;16.10;9.52;;;24.50;99.90;;;;;;5033265;28;20025;-76
2021/07/24 05:17:05;;;;;;;14.50;9.77;;;24.50;99.90;;;;;;5015405;28;20060;-76
2021/07/24 05:19:36;;;;;;;14.45;9.20;;;24.50;99.90;;;;;;5015624;28;20124;-77
2021/07/24 05:22:01;;;;;;;15.02;10.15;;;24.50;99.90;;;;;;5033292;28;20038;-77
2021/07/24 05:24:27;;;;;;;15.73;10.32;;;24.60;99.90;;;;;;5021930;28;20024;-77
2021/07/24 05:26:53;;;;;;;12.65;10.02;;;24.60;99.90;;;;;;5053316;28;20029;-77
2021/07/24 05:29:18;;;;;;;13.73;9.35;;;24.60;99.90;;;;;;5052997;28;20029;-77
2021/07/24 05:31:45;;;;;;;15.55;9.40;;;24.60;99.90;;;;;;5053465;28;20028;-77
2021/07/24 05:34:11;;;;;;;13.77;9.77;;;24.60;99.90;;;;;;5052978;28;20023;-76
2021/07/24 05:36:36;;;;;;;12.45;8.90;;;24.70;99.90;;;;;;5035035;28;20033;-77
2021/07/24 05:39:02;;;;;;;12.57;9.90;;;24.70;99.90;;;;;;5053167;28;20483;-77
2021/07/24 05:41:28;;;;;;;13.77;10.05;;;24.80;99.90;;;;;;5053157;28;20049;-77
2021/07/24 05:43:53;;;;;;;13.40;9.70;;;24.80;99.90;;;;;;5035111;28;20029;-76
2021/07/24 05:46:19;;;;;;;12.30;9.68;;;24.90;99.90;;;;;;5052219;28;20029;-77
2021/07/24 05:48:45;;;;;;;14.20;9.75;;;24.90;99.90;;;;;;5033897;28;20123;-76
2021/07/24 05:51:10;;;;;;;19.02;10.00;;;25.00;99.90;;;;;;5051202;28;20021;-77
2021/07/24 05:53:36;;;;;;;12.35;9.55;;;25.00;99.90;;;;;;5033881;28;20106;-77
2021/07/24 05:56:02;;;;;;;10.80;8.73;;;25.10;99.90;;;;;;5051632;28;20063;-76
2021/07/24 05:58:28;;;;;;;13.15;9.60;;;25.10;99.90;;;;;;5051700;28;20107;-77
2021/07/24 06:00:54;;;;;;;16.80;10.32;;;25.20;99.90;;;;;;5051515;28;20016;-77
2021/07/24 06:03:20;;;;;;;14.07;8.98;;;25.20;99.90;;;;;;5051888;28;20120;-76
2021/07/24 06:05:45;;;;;;;14.63;10.38;;;25.30;99.90;;;;;;5051362;28;20036;-77
2021/07/24 06:08:11;;;;;;;12.60;9.40;;;25.30;99.90;;;;;;5051186;28;20404;-76
2021/07/24 06:10:37;;;;;;;14.38;9.82;;;25.30;99.90;;;;;;5050873;28;20025;-77
2021/07/24 06:13:03;;;;;;;11.70;9.23;;;25.40;99.90;;;;;;5051368;28;20052;-77
2021/07/24 06:15:30;;;;;;;13.38;9.88;;;25.40;99.90;;;;;;5032989;28;20579;-77
2021/07/24 06:17:56;;;;;;;10.93;9.35;;;25.50;99.90;;;;;;5033259;28;20029;-77
2021/07/24 06:20:22;;;;;;;11.38;9.40;;;25.60;99.90;;;;;;5051324;28;20035;-77
2021/07/24 06:23:17;;;;;;;12.50;9.43;;;25.60;99.90;;;;;;5047096;28;20107;-77
2021/07/24 06:25:47;;;;;;;14.30;9.68;;;25.70;99.90;;;;;;5026792;28;20055;-77
2021/07/24 06:28:13;;;;;;;14.23;10.52;;;25.70;99.90;;;;;;5028595;28;20105;-77
2021/07/24 06:30:39;;;;;;;15.65;10.68;;;25.70;99.90;;;;;;5031336;28;20486;-77
2021/07/24 06:33:06;;;;;;;16.00;10.88;;;25.70;99.90;;;;;;5049182;28;20035;-77
2021/07/24 06:35:32;;;;;;;14.75;10.77;;;25.80;99.90;;;;;;5049364;28;20021;-77
2021/07/24 06:37:57;;;;;;;18.75;11.57;;;25.80;99.90;;;;;;5049245;28;20071;-76
2021/07/24 06:40:23;;;;;;;16.27;10.68;;;25.70;99.90;;;;;;5048126;28;20052;-76
2021/07/24 06:42:49;;;;;;;16.30;11.02;;;25.70;99.90;;;;;;5048223;28;20033;-76
2021/07/24 06:45:15;;;;;;;16.05;10.93;;;25.80;99.90;;;;;;5048452;28;20021;-77
2021/07/24 06:47:40;;;;;;;15.13;11.68;;;25.80;99.90;;;;;;5048298;28;20036;-77
2021/07/24 06:50:07;;;;;;;18.42;12.23;;;25.90;99.90;;;;;;5032040;28;20041;-76
2021/07/24 06:52:32;;;;;;;24.48;14.30;;;25.90;99.90;;;;;;5033407;28;20037;-76
2021/07/24 06:54:58;;;;;;;23.42;15.32;;;25.90;99.90;;;;;;5051531;28;20025;-76
2021/07/24 06:57:24;;;;;;;19.75;14.40;;;25.90;99.90;;;;;;5052403;28;20065;-77
2021/07/24 06:59:50;;;;;;;21.63;15.48;;;26.00;99.90;;;;;;5047931;28;20438;-77
2021/07/24 07:02:16;;;;;;;22.77;15.95;;;25.90;99.90;;;;;;5047625;28;20029;-77
2021/07/24 07:04:41;;;;;;;23.92;14.85;;;26.00;99.90;;;;;;5029098;28;20028;-76
2021/07/24 07:07:07;;;;;;;25.75;15.52;;;26.00;99.90;;;;;;5050777;28;20017;-76
2021/07/24 07:09:34;;;;;;;22.75;12.45;;;26.00;99.90;;;;;;5050355;28;20377;-77
2021/07/24 07:12:00;;;;;;;20.15;13.55;;;26.10;99.90;;;;;;5032256;28;20025;-76
2021/07/24 07:14:26;;;;;;;18.95;12.05;;;26.10;99.90;;;;;;5051311;28;20048;-77
2021/07/24 07:16:52;;;;;;;17.27;12.38;;;26.20;99.90;;;;;;5051031;28;20025;-77
2021/07/24 07:19:19;;;;;;;15.40;12.32;;;26.20;99.90;;;;;;5052416;28;20575;-77
2021/07/24 07:21:45;;;;;;;14.60;11.27;;;26.20;99.90;;;;;;5052743;28;20029;-77
2021/07/24 07:24:11;;;;;;;17.90;12.52;;;26.30;99.90;;;;;;5031527;28;20057;-77
2021/07/24 07:26:37;;;;;;;18.90;10.88;;;26.30;99.90;;;;;;5050189;28;20033;-77
2021/07/24 07:29:03;;;;;;;17.35;11.07;;;26.40;99.90;;;;;;5057877;28;20666;-77
2021/07/24 07:31:32;;;;;;;17.88;11.57;;;26.40;99.90;;;;;;5033314;28;20368;-77
2021/07/24 07:33:58;;;;;;;17.95;12.05;;;26.40;99.90;;;;;;5050997;28;20732;-77
2021/07/24 07:36:24;;;;;;;17.77;12.13;;;26.30;99.90;;;;;;5050390;28;20040;-76
2021/07/24 07:38:51;;;;;;;21.77;12.38;;;26.30;99.90;;;;;;5051427;28;20041;-76
2021/07/24 07:41:23;;;;;;;15.88;11.10;;;26.30;99.90;;;;;;5048057;28;20021;-76
2021/07/24 07:43:49;;;;;;;13.85;10.20;;;26.40;99.90;;;;;;5042797;28;20611;-76
2021/07/24 07:46:16;;;;;;;20.83;11.00;;;26.40;99.90;;;;;;5049674;28;20049;-76
2021/07/24 07:48:43;;;;;;;19.88;10.90;;;26.40;99.90;;;;;;5053183;28;20025;-76
2021/07/24 07:51:09;;;;;;;14.73;10.98;;;26.50;99.90;;;;;;5053932;28;20882;-76
2021/07/24 07:53:35;;;;;;;20.17;11.93;;;26.60;99.90;;;;;;5033204;28;20032;-76
2021/07/24 07:56:02;;;;;;;16.27;11.57;;;26.60;99.90;;;;;;5045908;28;20033;-77
2021/07/24 07:58:27;;;;;;;15.52;10.75;;;26.60;99.90;;;;;;5053202;28;20665;-76
2021/07/24 08:00:54;;;;;;;15.40;10.85;;;26.80;99.90;;;;;;5053524;28;20021;-76
2021/07/24 08:03:24;;;;;;;15.43;11.35;;;26.80;99.90;;;;;;5034992;28;20029;-76
2021/07/24 08:05:53;;;;;;;22.02;11.45;;;26.80;99.90;;;;;;5040332;28;20610;-77
2021/07/24 08:08:20;;;;;;;14.15;10.57;;;26.80;99.90;;;;;;5050738;28;20035;-76
2021/07/24 08:10:46;;;;;;;17.27;11.95;;;26.80;99.90;;;;;;5050997;28;20079;-76
2021/07/24 08:13:12;;;;;;;19.27;11.43;;;26.90;99.90;;;;;;5049053;28;20033;-76
2021/07/24 08:15:38;;;;;;;15.02;11.32;;;26.80;99.90;;;;;;5050864;28;20033;-76
2021/07/24 08:18:04;;;;;;;16.00;10.73;;;26.80;99.90;;;;;;5047346;28;20072;-76
2021/07/24 08:20:29;;;;;;;12.55;10.30;;;26.90;99.90;;;;;;5049633;28;20078;-76
2021/07/24 08:22:55;;;;;;;15.43;10.98;;;26.90;99.90;;;;;;5049650;28;20036;-77
2021/07/24 08:25:21;;;;;;;14.98;10.98;;;26.90;99.90;;;;;;5036266;28;20265;-77
2021/07/24 08:27:46;;;;;;;15.98;11.73;;;26.90;99.90;;;;;;5052944;28;20040;-77
2021/07/24 08:30:13;;;;;;;16.85;10.10;;;26.90;99.90;;;;;;5052812;28;20048;-77
2021/07/24 08:32:38;;;;;;;12.55;9.95;;;27.00;99.90;;;;;;5053196;28;20100;-77
2021/07/24 08:35:04;;;;;;;14.18;10.85;;;27.10;99.90;;;;;;5052910;28;20582;-77
2021/07/24 08:37:33;;;;;;;16.30;10.98;;;27.10;99.90;;;;;;5052896;28;20584;-77
2021/07/24 08:39:59;;;;;;;14.32;10.52;;;27.20;99.90;;;;;;5045981;28;20032;-78
2021/07/24 08:42:42;;;;;;;14.50;10.15;;;27.20;99.90;;;;;;5043855;28;20032;-77
2021/07/24 08:45:09;;;;;;;14.13;10.52;;;27.30;99.90;;;;;;5032670;28;20022;-77
2021/07/24 08:47:36;;;;;;;13.75;9.98;;;27.30;99.90;;;;;;5034108;28;20030;-77
2021/07/24 08:50:06;;;;;;;18.70;11.60;;;27.40;99.90;;;;;;5051131;28;20017;-77
2021/07/24 08:52:36;;;;;;;16.25;11.32;;;27.50;99.50;;;;;;5046778;28;20021;-77
2021/07/24 08:55:04;;;;;;;12.32;10.38;;;27.60;99.50;;;;;;5032319;28;20514;-77
2021/07/24 08:57:35;;;;;;;13.40;10.80;;;27.60;99.10;;;;;;5053078;28;20361;-77
2021/07/24 09:00:26;;;;;;;14.77;10.38;;;27.70;98.60;;;;;;5053267;28;20487;-77
2021/07/24 09:02:53;;;;;;;16.48;11.00;;;27.80;98.50;;;;;;5046909;28;20026;-77
2021/07/24 09:05:19;;;;;;;16.15;10.48;;;27.80;99.10;;;;;;5026687;28;20035;-77
2021/07/24 09:07:47;;;;;;;16.92;10.15;;;27.90;99.00;;;;;;5053726;28;20068;-77
2021/07/24 09:10:13;;;;;;;15.50;10.73;;;27.90;98.20;;;;;;5034088;28;20039;-77
2021/07/24 09:12:41;;;;;;;15.07;10.60;;;27.90;98.50;;;;;;5024565;28;20025;-77
2021/07/24 09:15:08;;;;;;;18.10;9.52;;;28.00;98.30;;;;;;5053376;28;20025;-77
2021/07/24 09:17:34;;;;;;;15.55;9.93;;;28.10;98.40;;;;;;5044765;28;20035;-77
2021/07/24 09:19:59;;;;;;;12.30;9.75;;;28.00;97.20;;;;;;5053346;28;20032;-77
2021/07/24 09:22:29;;;;;;;18.50;10.32;;;28.00;97.80;;;;;;5035531;28;20025;-77
2021/07/24 09:25:06;;;;;;;17.67;9.32;;;28.20;98.20;;;;;;5053299;28;20799;-77
2021/07/24 09:27:36;;;;;;;13.10;10.23;;;28.30;98.30;;;;;;5053439;28;20434;-77
2021/07/24 09:30:03;;;;;;;18.60;11.02;;;28.30;98.20;;;;;;5039510;28;20125;-77
2021/07/24 09:32:30;;;;;;;14.40;10.18;;;28.30;97.70;;;;;;5025403;28;20025;-77
2021/07/24 09:34:56;;;;;;;19.05;10.77;;;28.30;96.90;;;;;;5050217;28;20035;-77
2021/07/24 09:37:27;;;;;;;14.27;10.80;;;28.40;97.50;;;;;;5042883;28;20493;-78
2021/07/24 09:39:58;;;;;;;14.25;10.35;;;28.30;96.90;;;;;;5044688;28;20035;-77
2021/07/24 09:42:33;;;;;;;14.68;10.30;;;28.30;96.80;;;;;;5039112;28;20064;-77
2021/07/24 09:45:09;;;;;;;14.40;11.15;;;28.30;97.10;;;;;;5052166;28;20036;-77
2021/07/24 09:47:35;;;;;;;16.60;10.63;;;28.30;97.80;;;;;;5033522;28;20087;-77
2021/07/24 09:50:14;;;;;;;18.48;10.60;;;28.40;97.20;;;;;;5023448;28;20747;-76
2021/07/24 09:52:53;;;;;;;14.32;10.00;;;28.50;96.90;;;;;;5025123;28;20048;-76
2021/07/24 09:55:24;;;;;;;15.70;10.82;;;28.50;96.40;;;;;;5037840;28;20025;-76
2021/07/24 09:57:56;;;;;;;18.57;10.17;;;28.40;96.20;;;;;;5035126;28;20028;-76
2021/07/24 10:00:22;;;;;;;13.18;9.57;;;28.50;95.60;;;;;;5048940;28;20040;-76
2021/07/24 10:02:59;;;;;;;14.02;10.23;;;28.50;95.60;;;;;;5043844;28;20037;-76
2021/07/24 10:05:35;;;;;;;14.18;9.82;;;28.50;95.00;;;;;;5043043;28;20037;-77
2021/07/24 10:08:03;;;;;;;16.33;9.40;;;28.50;94.30;;;;;;5021328;28;20043;-76
2021/07/24 10:10:34;;;;;;;15.15;10.02;;;28.60;95.90;;;;;;5051820;28;20037;-76
2021/07/24 10:13:02;;;;;;;13.40;9.85;;;28.60;95.00;;;;;;5052509;28;20021;-76
2021/07/24 10:15:34;;;;;;;15.27;10.07;;;28.70;95.90;;;;;;5033945;28;20036;-76
2021/07/24 10:18:00;;;;;;;15.00;9.13;;;28.80;95.20;;;;;;5048430;28;20099;-76
2021/07/24 10:20:26;;;;;;;11.27;9.43;;;28.80;94.00;;;;;;5051967;28;20476;-76
2021/07/24 10:22:52;;;;;;;13.10;9.85;;;28.80;95.30;;;;;;5051723;28;20013;-76
2021/07/24 10:25:21;;;;;;;13.52;9.35;;;28.80;95.40;;;;;;5051560;28;20047;-76
2021/07/24 10:27:47;;;;;;;13.38;9.93;;;29.00;95.60;;;;;;5034688;28;20044;-77
2021/07/24 10:30:14;;;;;;;11.48;9.38;;;29.10;95.50;;;;;;5051558;28;20025;-76
2021/07/24 10:32:42;;;;;;;10.55;8.85;;;29.10;95.50;;;;;;5034310;28;20021;-76
2021/07/24 10:35:09;;;;;;;12.60;8.32;;;29.10;94.70;;;;;;5034430;28;20074;-76
2021/07/24 10:37:42;;;;;;;9.85;8.70;;;29.20;94.20;;;;;;5056026;28;20049;-76
2021/07/24 10:40:24;;;;;;;15.35;10.57;;;29.30;94.60;;;;;;5056086;28;20025;-76
2021/07/24 10:42:51;;;;;;;15.02;9.63;;;29.20;93.20;;;;;;5036039;28;20033;-76
2021/07/24 10:45:32;;;;;;;22.25;10.48;;;29.10;94.00;;;;;;5038129;28;20063;-76
2021/07/24 10:48:13;;;;;;;12.30;9.70;;;29.10;93.90;;;;;;5038088;28;20349;-76
2021/07/24 10:50:54;;;;;;;13.93;10.00;;;29.10;92.80;;;;;;5037742;28;20298;-76
2021/07/24 10:53:24;;;;;;;12.25;9.13;;;29.20;93.00;;;;;;5055449;28;20456;-76
2021/07/24 10:55:52;;;;;;;12.40;9.00;;;29.30;92.50;;;;;;5031651;28;20112;-77
2021/07/24 10:58:25;;;;;;;12.65;8.75;;;29.50;92.70;;;;;;5036092;28;20060;-77
2021/07/24 11:00:57;;;;;;;11.15;8.90;;;29.60;91.40;;;;;;5036190;28;20045;-77
2021/07/24 11:03:37;;;;;;;11.45;9.02;;;29.70;92.30;;;;;;5046469;28;20056;-77
2021/07/24 11:06:23;;;;;;;11.45;9.15;;;29.80;92.00;;;;;;5038034;28;20071;-77
2021/07/24 11:09:01;;;;;;;15.05;9.32;;;29.90;92.80;;;;;;5037928;28;20028;-77
2021/07/24 11:11:44;;;;;;;12.18;9.20;;;29.90;91.90;;;;;;5056132;28;20057;-76
2021/07/24 11:14:38;;;;;;;9.40;8.07;;;30.00;93.10;;;;;;5055740;28;20029;-77
2021/07/24 11:17:07;;;;;;;14.77;9.32;;;30.10;92.50;;;;;;5037458;28;20048;-76
2021/07/24 11:20:04;;;;;;;15.02;9.02;;;30.20;92.10;;;;;;5037938;28;20476;-76
2021/07/24 11:22:32;;;;;;;10.07;7.93;;;30.10;90.90;;;;;;5042990;28;20082;-76
2021/07/24 11:24:58;;;;;;;10.75;8.32;;;30.30;90.60;;;;;;5055129;28;20638;-76
2021/07/24 11:27:26;;;;;;;12.40;8.77;;;30.40;90.40;;;;;;5054896;28;20028;-77
2021/07/24 11:29:53;;;;;;;10.82;8.25;;;30.40;90.30;;;;;;5054122;28;20488;-77
2021/07/24 11:32:29;;;;;;;8.45;7.30;;;30.40;90.90;;;;;;5054505;28;20496;-77
2021/07/24 11:35:06;;;;;;;9.18;7.90;;;30.60;91.10;;;;;;5036745;28;20416;-76
2021/07/24 11:37:53;;;;;;;12.57;7.78;;;30.70;91.00;;;;;;5054678;28;20439;-77
2021/07/24 11:40:19;;;;;;;10.55;9.15;;;30.70;90.10;;;;;;5054689;28;20099;-77
2021/07/24 11:43:15;;;;;;;12.10;7.65;;;30.80;91.50;;;;;;5036795;28;20076;-76
2021/07/24 11:45:40;;;;;;;10.65;8.70;;;30.90;91.70;;;;;;5037764;28;20106;-77
2021/07/24 11:48:12;;;;;;;9.98;8.48;;;31.00;90.20;;;;;;5053585;28;20033;-76
2021/07/24 11:50:38;;;;;;;;;;;30.90;89.20;;;;;;5055302;28;20075;-76
2021/07/24 11:53:05;;;;;;;13.13;7.97;;;31.00;90.00;;;;;;5055132;28;19957;-77
2021/07/24 11:55:34;;;;;;;10.07;8.25;;;31.00;90.20;;;;;;5055189;28;20032;-76
2021/07/24 11:58:07;;;;;;;11.23;8.70;;;31.10;90.60;;;;;;5054731;28;20025;-76
2021/07/24 12:00:41;;;;;;;9.20;8.25;;;31.20;90.60;;;;;;5053979;28;20504;-77
2021/07/24 12:03:24;;;;;;;10.20;8.18;;;31.40;90.00;;;;;;5054460;28;20082;-76
2021/07/24 12:09:03;;;;;;;11.27;8.40;;;31.60;87.60;;;;;;4879705;26;20068;-76
2021/07/24 12:11:29;;;;;;;10.68;8.02;;;31.60;85.10;;;;;;5074893;28;20370;-77
2021/07/24 12:14:06;;;;;;;11.98;8.65;;;31.70;83.40;;;;;;5071799;28;20379;-76
2021/07/24 12:16:39;;;;;;;12.18;9.20;;;31.70;85.20;;;;;;5064756;28;20016;-77
2021/07/24 12:19:16;;;;;;;9.63;8.40;;;31.70;84.50;;;;;;5075238;28;20435;-77
2021/07/24 12:21:46;;;;;;;8.98;7.90;;;31.70;83.30;;;;;;5074461;28;20111;-77
2021/07/24 12:24:23;;;;;;;12.82;7.72;;;31.90;87.20;;;;;;5039883;28;20040;-77
2021/07/24 12:26:48;;;;;;;9.00;7.47;;;32.10;86.70;;;;;;5062560;28;20078;-77
2021/07/24 12:29:14;;;;;;;10.10;6.97;;;32.00;83.80;;;;;;5056023;28;20472;-76
2021/07/24 12:31:47;;;;;;;9.73;8.35;;;32.10;83.50;;;;;;5060514;28;20017;-76
2021/07/24 12:34:20;;;;;;;10.18;8.57;;;32.10;81.70;;;;;;5050458;28;20481;-76
2021/07/24 12:37:02;;;;;;;9.82;8.02;;;31.90;78.30;;;;;;5046157;28;20390;-76
2021/07/24 12:39:35;;;;;;;11.05;7.75;;;32.00;81.20;;;;;;5074182;28;20115;-76
2021/07/24 12:42:03;;;;;;;11.48;7.32;;;32.00;79.20;;;;;;5073894;28;20029;-77
2021/07/24 12:44:49;;;;;;;9.40;7.97;;;32.10;79.90;;;;;;5073805;28;20024;-76
2021/07/24 12:47:16;;;;;;;8.02;7.20;;;32.20;79.50;;;;;;5063673;28;20071;-77
2021/07/24 12:49:44;;;;;;;9.38;7.47;;;32.30;80.20;;;;;;5053925;28;20105;-76